sensor_id;sensor_type;location;lat;lon;timestamp;temperature;humidity
10282;DHT22;5186;59.472;18.048;2023-01-26T00:01:24;6.20;99.90
10282;DHT22;5186;59.472;18.048;2023-01-26T00:03:52;6.20;99.90
10282;DHT22;5186;59.472;18.048;2023-01-26T00:06:19;6.20;99.90
10282;DHT22;5186;59.472;18.048;2023-01-26T00:08:47;6.20;99.90
10282;DHT22;5186;59.472;18.048;2023-01-26T00:11:15;6.20;99.90
10282;DHT22;5186;59.472;18.048;2023-01-26T00:13:41;6.20;99.90
10282;DHT22;5186;59.472;18.048;2023-01-26T00:16:09;6.20;99.90
10282;DHT22;5186;59.472;18.048;2023-01-26T00:18:36;6.20;99.90
10282;DHT22;5186;59.472;18.048;2023-01-26T00:21:03;6.20;99.90
10282;DHT22;5186;59.472;18.048;2023-01-26T00:23:29;6.20;99.90
10282;DHT22;5186;59.472;18.048;2023-01-26T00:25:56;6.10;99.90
10282;DHT22;5186;59.472;18.048;2023-01-26T00:28:21;6.10;99.90
10282;DHT22;5186;59.472;18.048;2023-01-26T00:30:47;6.20;99.90
10282;DHT22;5186;59.472;18.048;2023-01-26T00:33:13;6.10;99.90
10282;DHT22;5186;59.472;18.048;2023-01-26T00:35:39;6.10;99.90
10282;DHT22;5186;59.472;18.048;2023-01-26T00:38:09;6.10;99.90
10282;DHT22;5186;59.472;18.048;2023-01-26T00:40:35;6.10;99.90
10282;DHT22;5186;59.472;18.048;2023-01-26T00:43:00;6.10;99.90
10282;DHT22;5186;59.472;18.048;2023-01-26T00:45:26;6.10;99.90
10282;DHT22;5186;59.472;18.048;2023-01-26T00:47:52;6.10;99.90
10282;DHT22;5186;59.472;18.048;2023-01-26T00:50:17;6.10;99.90
10282;DHT22;5186;59.472;18.048;2023-01-26T00:52:43;6.10;99.90
10282;DHT22;5186;59.472;18.048;2023-01-26T00:55:08;6.10;99.90
10282;DHT22;5186;59.472;18.048;2023-01-26T00:57:34;6.10;99.90
10282;DHT22;5186;59.472;18.048;2023-01-26T01:00:00;6.10;99.90
10282;DHT22;5186;59.472;18.048;2023-01-26T01:02:25;6.10;99.90
10282;DHT22;5186;59.472;18.048;2023-01-26T01:04:51;6.20;99.90
10282;DHT22;5186;59.472;18.048;2023-01-26T01:07:16;6.10;99.90
10282;DHT22;5186;59.472;18.048;2023-01-26T01:09:44;6.10;99.90
10282;DHT22;5186;59.472;18.048;2023-01-26T01:12:09;6.20;99.90
10282;DHT22;5186;59.472;18.048;2023-01-26T01:14:35;6.10;99.90
10282;DHT22;5186;59.472;18.048;2023-01-26T01:17:01;6.10;99.90
10282;DHT22;5186;59.472;18.048;2023-01-26T01:19:26;6.10;99.90
10282;DHT22;5186;59.472;18.048;2023-01-26T01:21:52;6.10;99.90
10282;DHT22;5186;59.472;18.048;2023-01-26T01:24:17;6.10;99.90
10282;DHT22;5186;59.472;18.048;2023-01-26T01:26:43;6.10;99.90
10282;DHT22;5186;59.472;18.048;2023-01-26T01:29:12;6.10;99.90
10282;DHT22;5186;59.472;18.048;2023-01-26T01:31:38;6.10;99.90
10282;DHT22;5186;59.472;18.048;2023-01-26T01:34:03;6.20;99.90
10282;DHT22;5186;59.472;18.048;2023-01-26T01:36:29;6.20;99.90
10282;DHT22;5186;59.472;18.048;2023-01-26T01:38:55;6.20;99.90
10282;DHT22;5186;59.472;18.048;2023-01-26T01:41:21;6.10;99.90
10282;DHT22;5186;59.472;18.048;2023-01-26T01:43:48;6.10;99.90
10282;DHT22;5186;59.472;18.048;2023-01-26T01:46:29;6.10;99.90
10282;DHT22;5186;59.472;18.048;2023-01-26T01:49:00;6.10;99.90
10282;DHT22;5186;59.472;18.048;2023-01-26T01:51:36;6.10;99.90
10282;DHT22;5186;59.472;18.048;2023-01-26T01:54:07;6.10;99.90
10282;DHT22;5186;59.472;18.048;2023-01-26T01:56:35;6.20;99.90
10282;DHT22;5186;59.472;18.048;2023-01-26T01:59:05;6.10;99.90
10282;DHT22;5186;59.472;18.048;2023-01-26T02:01:31;6.20;99.90
10282;DHT22;5186;59.472;18.048;2023-01-26T02:03:59;6.20;99.90
10282;DHT22;5186;59.472;18.048;2023-01-26T02:06:39;6.20;99.90
10282;DHT22;5186;59.472;18.048;2023-01-26T02:09:07;6.20;99.90
10282;DHT22;5186;59.472;18.048;2023-01-26T02:11:55;6.20;99.90
10282;DHT22;5186;59.472;18.048;2023-01-26T02:14:21;6.20;99.90
10282;DHT22;5186;59.472;18.048;2023-01-26T02:16:47;6.20;99.90
10282;DHT22;5186;59.472;18.048;2023-01-26T02:19:26;6.20;99.90
10282;DHT22;5186;59.472;18.048;2023-01-26T02:21:56;6.20;99.90
10282;DHT22;5186;59.472;18.048;2023-01-26T02:24:29;6.20;99.90
10282;DHT22;5186;59.472;18.048;2023-01-26T02:26:57;6.20;99.90
10282;DHT22;5186;59.472;18.048;2023-01-26T02:29:23;6.20;99.90
10282;DHT22;5186;59.472;18.048;2023-01-26T02:31:49;6.30;99.90
10282;DHT22;5186;59.472;18.048;2023-01-26T02:34:14;6.30;99.90
10282;DHT22;5186;59.472;18.048;2023-01-26T02:36:40;6.30;99.90
10282;DHT22;5186;59.472;18.048;2023-01-26T02:39:37;6.30;99.90
10282;DHT22;5186;59.472;18.048;2023-01-26T02:42:05;6.30;99.90
10282;DHT22;5186;59.472;18.048;2023-01-26T02:44:49;6.20;99.90
10282;DHT22;5186;59.472;18.048;2023-01-26T02:47:16;6.20;99.90
10282;DHT22;5186;59.472;18.048;2023-01-26T02:49:43;6.20;99.90
10282;DHT22;5186;59.472;18.048;2023-01-26T02:52:12;6.30;99.90
10282;DHT22;5186;59.472;18.048;2023-01-26T02:54:37;6.30;99.90
10282;DHT22;5186;59.472;18.048;2023-01-26T02:57:22;6.30;99.90
10282;DHT22;5186;59.472;18.048;2023-01-26T02:59:47;6.30;99.90
10282;DHT22;5186;59.472;18.048;2023-01-26T03:02:13;6.40;99.90
10282;DHT22;5186;59.472;18.048;2023-01-26T03:04:38;6.40;99.90
10282;DHT22;5186;59.472;18.048;2023-01-26T03:07:04;6.40;99.90
10282;DHT22;5186;59.472;18.048;2023-01-26T03:09:29;6.40;99.90
10282;DHT22;5186;59.472;18.048;2023-01-26T03:11:55;6.40;99.90
10282;DHT22;5186;59.472;18.048;2023-01-26T03:14:21;6.30;99.90
10282;DHT22;5186;59.472;18.048;2023-01-26T03:16:46;6.40;99.90
10282;DHT22;5186;59.472;18.048;2023-01-26T03:19:13;6.40;99.90
10282;DHT22;5186;59.472;18.048;2023-01-26T03:21:58;6.40;99.90
10282;DHT22;5186;59.472;18.048;2023-01-26T03:24:43;6.40;99.90
10282;DHT22;5186;59.472;18.048;2023-01-26T03:27:28;6.40;99.90
10282;DHT22;5186;59.472;18.048;2023-01-26T03:29:55;6.40;99.90
10282;DHT22;5186;59.472;18.048;2023-01-26T03:32:21;6.40;99.90
10282;DHT22;5186;59.472;18.048;2023-01-26T03:34:46;6.40;99.90
10282;DHT22;5186;59.472;18.048;2023-01-26T03:37:12;6.40;99.90
10282;DHT22;5186;59.472;18.048;2023-01-26T03:39:37;6.40;99.90
10282;DHT22;5186;59.472;18.048;2023-01-26T03:42:22;6.40;99.90
10282;DHT22;5186;59.472;18.048;2023-01-26T03:45:06;6.40;99.90
10282;DHT22;5186;59.472;18.048;2023-01-26T03:47:50;6.40;99.90
10282;DHT22;5186;59.472;18.048;2023-01-26T03:50:35;6.40;99.90
10282;DHT22;5186;59.472;18.048;2023-01-26T03:53:21;6.40;99.90
10282;DHT22;5186;59.472;18.048;2023-01-26T03:56:08;6.50;99.90
10282;DHT22;5186;59.472;18.048;2023-01-26T03:58:44;6.50;99.90
10282;DHT22;5186;59.472;18.048;2023-01-26T04:01:11;6.50;99.90
10282;DHT22;5186;59.472;18.048;2023-01-26T04:03:45;6.50;99.90
10282;DHT22;5186;59.472;18.048;2023-01-26T04:06:30;6.50;99.90
10282;DHT22;5186;59.472;18.048;2023-01-26T04:09:14;6.50;99.90
10282;DHT22;5186;59.472;18.048;2023-01-26T04:11:40;6.50;99.90
10282;DHT22;5186;59.472;18.048;2023-01-26T04:14:05;6.50;99.90
10282;DHT22;5186;59.472;18.048;2023-01-26T04:16:52;6.50;99.90
10282;DHT22;5186;59.472;18.048;2023-01-26T04:19:36;6.50;99.90
10282;DHT22;5186;59.472;18.048;2023-01-26T04:22:20;6.50;99.90
10282;DHT22;5186;59.472;18.048;2023-01-26T04:24:46;6.50;99.90
10282;DHT22;5186;59.472;18.048;2023-01-26T04:27:11;6.50;99.90
10282;DHT22;5186;59.472;18.048;2023-01-26T04:29:37;6.50;99.90
10282;DHT22;5186;59.472;18.048;2023-01-26T04:32:02;6.50;99.90
10282;DHT22;5186;59.472;18.048;2023-01-26T04:34:28;6.40;99.90
10282;DHT22;5186;59.472;18.048;2023-01-26T04:36:53;6.50;99.90
10282;DHT22;5186;59.472;18.048;2023-01-26T04:39:19;6.40;99.90
10282;DHT22;5186;59.472;18.048;2023-01-26T04:41:45;6.50;99.90
10282;DHT22;5186;59.472;18.048;2023-01-26T04:44:10;6.40;99.90
10282;DHT22;5186;59.472;18.048;2023-01-26T04:46:36;6.40;99.90
10282;DHT22;5186;59.472;18.048;2023-01-26T04:49:02;6.50;99.90
10282;DHT22;5186;59.472;18.048;2023-01-26T04:51:27;6.40;99.90
10282;DHT22;5186;59.472;18.048;2023-01-26T04:53:53;6.40;99.90
10282;DHT22;5186;59.472;18.048;2023-01-26T04:56:29;6.40;99.90
10282;DHT22;5186;59.472;18.048;2023-01-26T04:58:57;6.40;99.90
10282;DHT22;5186;59.472;18.048;2023-01-26T05:01:22;6.40;99.90
10282;DHT22;5186;59.472;18.048;2023-01-26T05:03:48;6.30;99.90
10282;DHT22;5186;59.472;18.048;2023-01-26T05:06:14;6.30;99.90
10282;DHT22;5186;59.472;18.048;2023-01-26T05:08:40;6.30;99.90
10282;DHT22;5186;59.472;18.048;2023-01-26T05:11:06;6.30;99.90
10282;DHT22;5186;59.472;18.048;2023-01-26T05:13:32;6.30;99.90
10282;DHT22;5186;59.472;18.048;2023-01-26T05:16:00;6.30;99.90
10282;DHT22;5186;59.472;18.048;2023-01-26T05:18:25;6.30;99.90
10282;DHT22;5186;59.472;18.048;2023-01-26T05:20:51;6.30;99.90
10282;DHT22;5186;59.472;18.048;2023-01-26T05:23:16;6.30;99.90
10282;DHT22;5186;59.472;18.048;2023-01-26T05:25:42;6.30;99.90
10282;DHT22;5186;59.472;18.048;2023-01-26T05:28:08;6.30;99.90
10282;DHT22;5186;59.472;18.048;2023-01-26T05:30:33;6.30;99.90
10282;DHT22;5186;59.472;18.048;2023-01-26T05:33:03;6.30;99.90
10282;DHT22;5186;59.472;18.048;2023-01-26T05:35:29;6.30;99.90
10282;DHT22;5186;59.472;18.048;2023-01-26T05:37:55;6.30;99.90
10282;DHT22;5186;59.472;18.048;2023-01-26T05:40:20;6.30;99.90
10282;DHT22;5186;59.472;18.048;2023-01-26T05:42:46;6.20;99.90
10282;DHT22;5186;59.472;18.048;2023-01-26T05:45:12;6.20;99.90
10282;DHT22;5186;59.472;18.048;2023-01-26T05:47:38;6.20;99.90
10282;DHT22;5186;59.472;18.048;2023-01-26T05:50:04;6.30;99.90
10282;DHT22;5186;59.472;18.048;2023-01-26T05:52:30;6.20;99.90
10282;DHT22;5186;59.472;18.048;2023-01-26T05:54:56;6.20;99.90
10282;DHT22;5186;59.472;18.048;2023-01-26T05:57:21;6.20;99.90
10282;DHT22;5186;59.472;18.048;2023-01-26T05:59:47;6.20;99.90
10282;DHT22;5186;59.472;18.048;2023-01-26T06:02:13;6.20;99.90
10282;DHT22;5186;59.472;18.048;2023-01-26T06:04:39;6.20;99.90
10282;DHT22;5186;59.472;18.048;2023-01-26T06:07:05;6.30;99.90
10282;DHT22;5186;59.472;18.048;2023-01-26T06:09:30;6.20;99.90
10282;DHT22;5186;59.472;18.048;2023-01-26T06:11:56;6.20;99.90
10282;DHT22;5186;59.472;18.048;2023-01-26T06:14:22;6.20;99.90
10282;DHT22;5186;59.472;18.048;2023-01-26T06:16:47;6.20;99.90
10282;DHT22;5186;59.472;18.048;2023-01-26T06:19:13;6.20;99.90
10282;DHT22;5186;59.472;18.048;2023-01-26T06:21:39;6.10;99.90
10282;DHT22;5186;59.472;18.048;2023-01-26T06:24:05;6.10;99.90
10282;DHT22;5186;59.472;18.048;2023-01-26T06:26:31;6.20;99.90
10282;DHT22;5186;59.472;18.048;2023-01-26T06:28:56;6.20;99.90
10282;DHT22;5186;59.472;18.048;2023-01-26T06:31:22;6.20;99.90
10282;DHT22;5186;59.472;18.048;2023-01-26T06:33:54;6.20;99.90
10282;DHT22;5186;59.472;18.048;2023-01-26T06:36:20;6.20;99.90
10282;DHT22;5186;59.472;18.048;2023-01-26T06:38:47;6.10;99.90
10282;DHT22;5186;59.472;18.048;2023-01-26T06:41:14;6.10;99.90
10282;DHT22;5186;59.472;18.048;2023-01-26T06:43:44;6.10;99.90
10282;DHT22;5186;59.472;18.048;2023-01-26T06:46:10;6.10;99.90
10282;DHT22;5186;59.472;18.048;2023-01-26T06:48:35;6.10;99.90
10282;DHT22;5186;59.472;18.048;2023-01-26T06:53:36;6.10;99.90
10282;DHT22;5186;59.472;18.048;2023-01-26T06:56:05;6.10;99.90
10282;DHT22;5186;59.472;18.048;2023-01-26T06:58:30;6.10;99.90
10282;DHT22;5186;59.472;18.048;2023-01-26T07:00:56;6.10;99.90
10282;DHT22;5186;59.472;18.048;2023-01-26T07:03:22;6.10;99.90
10282;DHT22;5186;59.472;18.048;2023-01-26T07:05:47;6.10;99.90
10282;DHT22;5186;59.472;18.048;2023-01-26T07:08:13;6.10;99.90
10282;DHT22;5186;59.472;18.048;2023-01-26T07:10:39;6.10;99.90
10282;DHT22;5186;59.472;18.048;2023-01-26T07:13:05;6.10;99.90
10282;DHT22;5186;59.472;18.048;2023-01-26T07:15:31;6.10;99.90
10282;DHT22;5186;59.472;18.048;2023-01-26T07:17:57;6.10;99.90
10282;DHT22;5186;59.472;18.048;2023-01-26T07:20:23;6.10;99.90
10282;DHT22;5186;59.472;18.048;2023-01-26T07:22:49;6.10;99.90
10282;DHT22;5186;59.472;18.048;2023-01-26T07:25:16;6.10;99.90
10282;DHT22;5186;59.472;18.048;2023-01-26T07:27:41;6.10;99.90
10282;DHT22;5186;59.472;18.048;2023-01-26T07:30:08;6.10;99.90
10282;DHT22;5186;59.472;18.048;2023-01-26T07:32:34;6.10;99.90
10282;DHT22;5186;59.472;18.048;2023-01-26T07:34:59;6.00;99.90
10282;DHT22;5186;59.472;18.048;2023-01-26T07:37:29;6.00;99.90
10282;DHT22;5186;59.472;18.048;2023-01-26T07:39:55;6.00;99.90
10282;DHT22;5186;59.472;18.048;2023-01-26T07:42:21;6.00;99.90
10282;DHT22;5186;59.472;18.048;2023-01-26T07:44:46;6.00;99.90
10282;DHT22;5186;59.472;18.048;2023-01-26T07:47:12;6.00;99.90
10282;DHT22;5186;59.472;18.048;2023-01-26T07:49:39;6.00;99.90
10282;DHT22;5186;59.472;18.048;2023-01-26T07:52:05;5.90;99.90
10282;DHT22;5186;59.472;18.048;2023-01-26T07:54:31;5.90;99.90
10282;DHT22;5186;59.472;18.048;2023-01-26T07:56:56;5.90;99.90
10282;DHT22;5186;59.472;18.048;2023-01-26T07:59:22;5.90;99.90
10282;DHT22;5186;59.472;18.048;2023-01-26T08:01:49;5.80;99.90
10282;DHT22;5186;59.472;18.048;2023-01-26T08:04:16;5.80;99.90
10282;DHT22;5186;59.472;18.048;2023-01-26T08:06:41;5.80;99.90
10282;DHT22;5186;59.472;18.048;2023-01-26T08:09:07;5.80;99.90
10282;DHT22;5186;59.472;18.048;2023-01-26T08:11:33;5.70;99.90
10282;DHT22;5186;59.472;18.048;2023-01-26T08:13:58;5.70;99.90
10282;DHT22;5186;59.472;18.048;2023-01-26T08:16:24;5.60;99.90
10282;DHT22;5186;59.472;18.048;2023-01-26T08:18:49;5.60;99.90
10282;DHT22;5186;59.472;18.048;2023-01-26T08:21:16;5.50;99.90
10282;DHT22;5186;59.472;18.048;2023-01-26T08:23:46;5.50;99.90
10282;DHT22;5186;59.472;18.048;2023-01-26T08:26:12;5.50;99.90
10282;DHT22;5186;59.472;18.048;2023-01-26T08:28:38;5.40;99.90
10282;DHT22;5186;59.472;18.048;2023-01-26T08:31:13;5.30;99.90
10282;DHT22;5186;59.472;18.048;2023-01-26T08:33:41;5.30;99.90
10282;DHT22;5186;59.472;18.048;2023-01-26T08:36:09;5.30;99.90
10282;DHT22;5186;59.472;18.048;2023-01-26T08:38:36;5.30;99.90
10282;DHT22;5186;59.472;18.048;2023-01-26T08:41:02;5.30;99.90
10282;DHT22;5186;59.472;18.048;2023-01-26T08:43:28;5.30;99.90
10282;DHT22;5186;59.472;18.048;2023-01-26T08:45:54;5.30;99.90
10282;DHT22;5186;59.472;18.048;2023-01-26T08:48:20;5.20;99.90
10282;DHT22;5186;59.472;18.048;2023-01-26T08:50:45;5.30;99.90
10282;DHT22;5186;59.472;18.048;2023-01-26T08:53:11;5.20;99.90
10282;DHT22;5186;59.472;18.048;2023-01-26T08:55:37;5.20;99.90
10282;DHT22;5186;59.472;18.048;2023-01-26T08:58:03;5.20;99.90
10282;DHT22;5186;59.472;18.048;2023-01-26T09:00:29;5.20;99.90
10282;DHT22;5186;59.472;18.048;2023-01-26T09:03:01;5.20;99.90
10282;DHT22;5186;59.472;18.048;2023-01-26T09:05:31;5.20;99.90
10282;DHT22;5186;59.472;18.048;2023-01-26T09:07:56;5.20;99.90
10282;DHT22;5186;59.472;18.048;2023-01-26T09:10:22;5.20;99.90
10282;DHT22;5186;59.472;18.048;2023-01-26T09:12:48;5.20;99.90
10282;DHT22;5186;59.472;18.048;2023-01-26T09:15:13;5.10;99.90
10282;DHT22;5186;59.472;18.048;2023-01-26T09:17:39;5.10;99.90
10282;DHT22;5186;59.472;18.048;2023-01-26T09:20:08;5.10;99.90
10282;DHT22;5186;59.472;18.048;2023-01-26T09:22:34;5.10;99.90
10282;DHT22;5186;59.472;18.048;2023-01-26T09:25:00;5.10;99.90
10282;DHT22;5186;59.472;18.048;2023-01-26T09:27:25;5.00;99.90
10282;DHT22;5186;59.472;18.048;2023-01-26T09:29:51;5.10;99.90
10282;DHT22;5186;59.472;18.048;2023-01-26T09:32:18;5.10;99.90
10282;DHT22;5186;59.472;18.048;2023-01-26T09:34:44;5.10;99.90
10282;DHT22;5186;59.472;18.048;2023-01-26T09:37:09;5.00;99.90
10282;DHT22;5186;59.472;18.048;2023-01-26T09:39:35;5.00;99.90
10282;DHT22;5186;59.472;18.048;2023-01-26T09:45:06;5.00;99.90
10282;DHT22;5186;59.472;18.048;2023-01-26T09:48:16;4.90;99.90
10282;DHT22;5186;59.472;18.048;2023-01-26T09:53:47;4.90;99.90
10282;DHT22;5186;59.472;18.048;2023-01-26T09:56:19;4.80;99.90
10282;DHT22;5186;59.472;18.048;2023-01-26T09:58:50;4.80;99.90
10282;DHT22;5186;59.472;18.048;2023-01-26T10:01:32;4.80;99.90
10282;DHT22;5186;59.472;18.048;2023-01-26T10:04:10;4.80;99.90
10282;DHT22;5186;59.472;18.048;2023-01-26T10:06:38;4.70;99.90
10282;DHT22;5186;59.472;18.048;2023-01-26T10:09:11;4.70;99.90
10282;DHT22;5186;59.472;18.048;2023-01-26T10:11:49;4.70;99.90
10282;DHT22;5186;59.472;18.048;2023-01-26T10:16:52;4.60;99.90
10282;DHT22;5186;59.472;18.048;2023-01-26T10:19:28;4.60;99.90
10282;DHT22;5186;59.472;18.048;2023-01-26T10:21:58;4.60;99.90
10282;DHT22;5186;59.472;18.048;2023-01-26T10:24:25;4.60;99.90
10282;DHT22;5186;59.472;18.048;2023-01-26T10:26:52;4.60;99.90
10282;DHT22;5186;59.472;18.048;2023-01-26T10:29:21;4.70;99.90
10282;DHT22;5186;59.472;18.048;2023-01-26T10:31:47;4.70;99.90
10282;DHT22;5186;59.472;18.048;2023-01-26T10:36:43;4.70;99.90
10282;DHT22;5186;59.472;18.048;2023-01-26T10:39:12;4.70;99.90
10282;DHT22;5186;59.472;18.048;2023-01-26T10:41:38;4.70;99.90
10282;DHT22;5186;59.472;18.048;2023-01-26T10:44:22;4.70;99.90
10282;DHT22;5186;59.472;18.048;2023-01-26T10:47:02;4.70;99.90
10282;DHT22;5186;59.472;18.048;2023-01-26T10:49:28;4.70;99.90
10282;DHT22;5186;59.472;18.048;2023-01-26T10:52:24;4.70;99.90
10282;DHT22;5186;59.472;18.048;2023-01-26T10:55:09;4.70;99.90
10282;DHT22;5186;59.472;18.048;2023-01-26T10:57:40;4.70;99.90
10282;DHT22;5186;59.472;18.048;2023-01-26T11:00:23;4.60;99.90
10282;DHT22;5186;59.472;18.048;2023-01-26T11:03:38;4.60;99.90
10282;DHT22;5186;59.472;18.048;2023-01-26T11:05:39;4.60;99.90
10282;DHT22;5186;59.472;18.048;2023-01-26T11:08:33;4.60;99.90
10282;DHT22;5186;59.472;18.048;2023-01-26T11:10:59;4.60;99.90
10282;DHT22;5186;59.472;18.048;2023-01-26T11:13:24;4.60;99.90
10282;DHT22;5186;59.472;18.048;2023-01-26T11:16:13;4.60;99.90
10282;DHT22;5186;59.472;18.048;2023-01-26T11:21:36;4.60;99.90
10282;DHT22;5186;59.472;18.048;2023-01-26T11:24:23;4.60;99.90
10282;DHT22;5186;59.472;18.048;2023-01-26T11:32:40;4.60;99.90
10282;DHT22;5186;59.472;18.048;2023-01-26T11:51:41;4.70;99.90
10282;DHT22;5186;59.472;18.048;2023-01-26T11:54:53;4.70;99.90
10282;DHT22;5186;59.472;18.048;2023-01-26T11:59:55;4.80;99.90
10282;DHT22;5186;59.472;18.048;2023-01-26T12:02:37;4.80;99.90
10282;DHT22;5186;59.472;18.048;2023-01-26T12:06:00;4.80;99.90
10282;DHT22;5186;59.472;18.048;2023-01-26T12:08:03;4.80;99.90
10282;DHT22;5186;59.472;18.048;2023-01-26T12:10:40;4.80;99.90
10282;DHT22;5186;59.472;18.048;2023-01-26T12:13:34;4.80;99.90
10282;DHT22;5186;59.472;18.048;2023-01-26T12:16:12;4.70;99.90
10282;DHT22;5186;59.472;18.048;2023-01-26T12:18:46;4.70;99.90
10282;DHT22;5186;59.472;18.048;2023-01-26T12:21:12;4.70;99.90
10282;DHT22;5186;59.472;18.048;2023-01-26T12:23:50;4.80;99.90
10282;DHT22;5186;59.472;18.048;2023-01-26T12:26:22;4.80;99.90
10282;DHT22;5186;59.472;18.048;2023-01-26T12:32:11;4.70;99.90
10282;DHT22;5186;59.472;18.048;2023-01-26T12:34:38;4.70;99.90
10282;DHT22;5186;59.472;18.048;2023-01-26T12:40:32;4.70;99.90
10282;DHT22;5186;59.472;18.048;2023-01-26T12:46:05;4.70;99.90
10282;DHT22;5186;59.472;18.048;2023-01-26T12:48:56;4.70;99.90
10282;DHT22;5186;59.472;18.048;2023-01-26T12:51:30;4.60;99.90
10282;DHT22;5186;59.472;18.048;2023-01-26T12:54:01;4.60;99.90
10282;DHT22;5186;59.472;18.048;2023-01-26T12:56:36;4.60;99.90
10282;DHT22;5186;59.472;18.048;2023-01-26T12:59:27;4.60;99.90
10282;DHT22;5186;59.472;18.048;2023-01-26T13:01:54;4.60;99.90
10282;DHT22;5186;59.472;18.048;2023-01-26T13:04:20;4.60;99.90
10282;DHT22;5186;59.472;18.048;2023-01-26T13:07:03;4.50;99.90
10282;DHT22;5186;59.472;18.048;2023-01-26T13:12:58;4.50;99.90
10282;DHT22;5186;59.472;18.048;2023-01-26T13:15:29;4.50;99.90
10282;DHT22;5186;59.472;18.048;2023-01-26T13:17:59;4.40;99.90
10282;DHT22;5186;59.472;18.048;2023-01-26T13:28:40;4.30;99.90
10282;DHT22;5186;59.472;18.048;2023-01-26T13:31:06;4.30;99.90
10282;DHT22;5186;59.472;18.048;2023-01-26T13:33:33;4.30;99.90
10282;DHT22;5186;59.472;18.048;2023-01-26T13:36:01;4.40;99.90
10282;DHT22;5186;59.472;18.048;2023-01-26T13:40:53;4.30;99.90
10282;DHT22;5186;59.472;18.048;2023-01-26T13:43:36;4.30;99.90
10282;DHT22;5186;59.472;18.048;2023-01-26T13:48:52;4.20;99.90
10282;DHT22;5186;59.472;18.048;2023-01-26T13:51:25;4.20;99.90
10282;DHT22;5186;59.472;18.048;2023-01-26T13:54:04;4.20;99.90
10282;DHT22;5186;59.472;18.048;2023-01-26T13:56:41;4.10;99.90
10282;DHT22;5186;59.472;18.048;2023-01-26T13:59:13;4.10;99.90
10282;DHT22;5186;59.472;18.048;2023-01-26T14:01:43;4.10;99.90
10282;DHT22;5186;59.472;18.048;2023-01-26T14:04:14;4.10;99.90
10282;DHT22;5186;59.472;18.048;2023-01-26T14:06:42;4.10;99.90
10282;DHT22;5186;59.472;18.048;2023-01-26T14:09:12;4.00;99.90
10282;DHT22;5186;59.472;18.048;2023-01-26T14:11:39;4.00;99.90
10282;DHT22;5186;59.472;18.048;2023-01-26T14:14:10;4.00;99.90
10282;DHT22;5186;59.472;18.048;2023-01-26T14:16:41;4.00;99.90
10282;DHT22;5186;59.472;18.048;2023-01-26T14:19:12;3.90;99.90
10282;DHT22;5186;59.472;18.048;2023-01-26T14:24:13;3.90;99.90
10282;DHT22;5186;59.472;18.048;2023-01-26T14:26:39;3.80;99.90
10282;DHT22;5186;59.472;18.048;2023-01-26T14:29:22;3.80;99.90
10282;DHT22;5186;59.472;18.048;2023-01-26T14:31:50;3.70;99.90
10282;DHT22;5186;59.472;18.048;2023-01-26T14:34:27;3.70;99.90
10282;DHT22;5186;59.472;18.048;2023-01-26T14:37:13;3.70;99.90
10282;DHT22;5186;59.472;18.048;2023-01-26T14:39:40;3.70;99.90
10282;DHT22;5186;59.472;18.048;2023-01-26T14:42:13;3.70;99.90
10282;DHT22;5186;59.472;18.048;2023-01-26T14:44:39;3.70;99.90
10282;DHT22;5186;59.472;18.048;2023-01-26T14:52:28;3.40;99.90
10282;DHT22;5186;59.472;18.048;2023-01-26T14:55:02;3.30;99.90
10282;DHT22;5186;59.472;18.048;2023-01-26T14:57:30;3.20;99.90
10282;DHT22;5186;59.472;18.048;2023-01-26T14:59:58;3.20;99.90
10282;DHT22;5186;59.472;18.048;2023-01-26T15:02:41;3.10;99.90
10282;DHT22;5186;59.472;18.048;2023-01-26T15:05:13;3.10;99.90
10282;DHT22;5186;59.472;18.048;2023-01-26T15:10:36;2.90;99.90
10282;DHT22;5186;59.472;18.048;2023-01-26T15:13:28;3.00;99.90
10282;DHT22;5186;59.472;18.048;2023-01-26T15:18:38;3.00;99.90
10282;DHT22;5186;59.472;18.048;2023-01-26T15:21:14;3.00;99.90
10282;DHT22;5186;59.472;18.048;2023-01-26T15:23:44;2.90;99.90
10282;DHT22;5186;59.472;18.048;2023-01-26T15:26:14;2.90;99.90
10282;DHT22;5186;59.472;18.048;2023-01-26T15:28:50;2.80;99.90
10282;DHT22;5186;59.472;18.048;2023-01-26T15:31:37;2.70;99.90
10282;DHT22;5186;59.472;18.048;2023-01-26T15:34:04;2.60;99.90
10282;DHT22;5186;59.472;18.048;2023-01-26T15:36:47;2.50;99.90
10282;DHT22;5186;59.472;18.048;2023-01-26T15:39:18;2.50;99.90
10282;DHT22;5186;59.472;18.048;2023-01-26T15:41:56;2.50;99.90
10282;DHT22;5186;59.472;18.048;2023-01-26T15:44:22;2.40;99.90
10282;DHT22;5186;59.472;18.048;2023-01-26T15:46:48;2.30;99.90
10282;DHT22;5186;59.472;18.048;2023-01-26T15:49:14;2.30;99.90
10282;DHT22;5186;59.472;18.048;2023-01-26T15:51:39;2.20;99.90
10282;DHT22;5186;59.472;18.048;2023-01-26T15:54:08;2.20;99.90
10282;DHT22;5186;59.472;18.048;2023-01-26T15:56:34;2.10;99.90
10282;DHT22;5186;59.472;18.048;2023-01-26T15:58:59;2.10;99.90
10282;DHT22;5186;59.472;18.048;2023-01-26T16:01:25;2.00;99.90
10282;DHT22;5186;59.472;18.048;2023-01-26T16:03:51;2.10;99.90
10282;DHT22;5186;59.472;18.048;2023-01-26T16:06:29;2.00;99.90
10282;DHT22;5186;59.472;18.048;2023-01-26T16:08:56;2.00;99.90
10282;DHT22;5186;59.472;18.048;2023-01-26T16:11:25;2.00;99.90
10282;DHT22;5186;59.472;18.048;2023-01-26T16:13:52;2.00;99.90
10282;DHT22;5186;59.472;18.048;2023-01-26T16:16:18;1.90;99.90
10282;DHT22;5186;59.472;18.048;2023-01-26T16:18:44;1.90;99.90
10282;DHT22;5186;59.472;18.048;2023-01-26T16:21:29;1.80;99.90
10282;DHT22;5186;59.472;18.048;2023-01-26T16:23:57;1.70;99.90
10282;DHT22;5186;59.472;18.048;2023-01-26T16:26:24;1.70;99.90
10282;DHT22;5186;59.472;18.048;2023-01-26T16:28:50;1.60;99.90
10282;DHT22;5186;59.472;18.048;2023-01-26T16:31:17;1.60;99.90
10282;DHT22;5186;59.472;18.048;2023-01-26T16:33:44;1.50;99.90
10282;DHT22;5186;59.472;18.048;2023-01-26T16:36:11;1.50;99.90
10282;DHT22;5186;59.472;18.048;2023-01-26T16:38:38;1.50;99.90
10282;DHT22;5186;59.472;18.048;2023-01-26T16:41:03;1.40;99.90
10282;DHT22;5186;59.472;18.048;2023-01-26T16:43:29;1.40;99.90
10282;DHT22;5186;59.472;18.048;2023-01-26T16:45:55;1.40;99.90
10282;DHT22;5186;59.472;18.048;2023-01-26T16:48:22;1.30;99.90
10282;DHT22;5186;59.472;18.048;2023-01-26T16:50:52;1.30;99.90
10282;DHT22;5186;59.472;18.048;2023-01-26T16:53:30;1.30;99.90
10282;DHT22;5186;59.472;18.048;2023-01-26T16:56:00;1.20;99.90
10282;DHT22;5186;59.472;18.048;2023-01-26T16:58:25;1.20;99.90
10282;DHT22;5186;59.472;18.048;2023-01-26T17:00:53;1.10;99.90
10282;DHT22;5186;59.472;18.048;2023-01-26T17:03:19;1.10;99.90
10282;DHT22;5186;59.472;18.048;2023-01-26T17:05:45;1.10;99.90
10282;DHT22;5186;59.472;18.048;2023-01-26T17:08:10;1.10;99.90
10282;DHT22;5186;59.472;18.048;2023-01-26T17:10:36;1.00;99.90
10282;DHT22;5186;59.472;18.048;2023-01-26T17:13:02;0.90;99.90
10282;DHT22;5186;59.472;18.048;2023-01-26T17:15:28;0.90;99.90
10282;DHT22;5186;59.472;18.048;2023-01-26T17:17:53;0.90;99.90
10282;DHT22;5186;59.472;18.048;2023-01-26T17:20:19;0.90;99.90
10282;DHT22;5186;59.472;18.048;2023-01-26T17:22:46;0.90;99.90